Time;durP1;ratioP1;P1;durP2;ratioP2;P2;SDS_P1;SDS_P2;PMS_P1;PMS_P2;Temp;Humidity;BMP_temperature;BMP_pressure;BME280_temperature;BME280_humidity;BME280_pressure;Samples;Min_cycle;Max_cycle;Signal;HPM_P1;HPM_P2
2022/05/03 00:00:10;;;;;;;6.43;2.53;;;;;;;11.60;75.52;98577.69;4483927;32;20097;-71
2022/05/03 00:02:57;;;;;;;4.55;2.50;;;;;;;11.64;75.51;98565.91;4485193;31;20089;-71
2022/05/03 00:05:58;;;;;;;4.05;2.35;;;;;;;11.65;75.58;98570.19;4485157;31;20118;-71
2022/05/03 00:08:33;;;;;;;4.12;2.42;;;;;;;11.60;76.54;98570.63;4484946;31;20163;-71
2022/05/03 00:11:08;;;;;;;4.15;2.80;;;;;;;11.54;75.74;98568.59;4483666;32;20498;-71
2022/05/03 00:14:11;;;;;;;4.43;2.37;;;;;;;11.45;76.53;98574.72;4485019;31;20434;-71
2022/05/03 00:16:38;;;;;;;3.15;2.45;;;;;;;11.33;77.37;98574.91;4483631;32;20449;-71
2022/05/03 00:19:06;;;;;;;7.37;2.70;;;;;;;11.36;77.36;98574.63;4485021;32;20096;-71
2022/05/03 00:21:34;;;;;;;6.12;2.85;;;;;;;11.32;76.96;98575.87;4484505;31;20141;-71
2022/05/03 00:24:02;;;;;;;3.80;2.45;;;;;;;11.31;77.35;98568.16;4483491;31;20127;-71
2022/05/03 00:26:30;;;;;;;5.05;2.53;;;;;;;11.29;77.03;98572.75;4483626;32;20476;-71
2022/05/03 00:28:59;;;;;;;4.85;2.50;;;;;;;11.33;76.84;98574.09;4484760;31;20088;-71
2022/05/03 00:31:27;;;;;;;6.15;2.70;;;;;;;11.34;76.59;98565.28;4484610;31;20104;-71
2022/05/03 00:33:56;;;;;;;3.58;2.80;;;;;;;11.43;76.51;98569.63;4484950;31;20084;-71
2022/05/03 00:36:24;;;;;;;4.30;2.83;;;;;;;11.44;77.06;98560.78;4484669;32;20075;-71
2022/05/03 00:38:51;;;;;;;6.55;2.78;;;;;;;11.39;78.57;98556.97;4484713;31;20153;-71
2022/05/03 00:41:59;;;;;;;7.45;2.80;;;;;;;11.31;80.31;98560.28;4484780;32;20161;-71
2022/05/03 00:44:55;;;;;;;3.97;2.65;;;;;;;11.17;79.64;98561.63;4473919;32;20443;-71
2022/05/03 00:47:35;;;;;;;5.28;2.70;;;;;;;11.18;78.46;98558.84;4484455;31;20163;-71
2022/05/03 00:50:06;;;;;;;3.85;2.67;;;;;;;11.34;77.10;98560.84;4484376;31;20080;-71
2022/05/03 00:52:39;;;;;;;5.53;3.03;;;;;;;11.44;76.35;98560.78;4484298;32;20226;-71
2022/05/03 00:55:15;;;;;;;6.97;2.67;;;;;;;11.44;75.84;98560.78;4483145;32;20123;-71
2022/05/03 00:58:09;;;;;;;5.10;2.70;;;;;;;11.57;75.05;98549.94;4482993;32;20118;-70
2022/05/03 01:00:46;;;;;;;4.05;2.53;;;;;;;11.60;75.15;98554.06;4484488;31;20109;-71
2022/05/03 01:03:21;;;;;;;5.03;2.80;;;;;;;11.53;75.62;98557.25;4483132;32;20180;-71
2022/05/03 01:06:12;;;;;;;4.40;2.85;;;;;;;11.56;75.00;98547.47;4482804;32;20092;-71
2022/05/03 01:08:59;;;;;;;4.28;2.92;;;;;;;11.60;74.98;98547.00;4483278;32;20105;-71
2022/05/03 01:11:57;;;;;;;5.50;2.97;;;;;;;11.52;75.46;98560.87;4483132;32;20141;-71
2022/05/03 01:15:02;;;;;;;5.18;3.12;;;;;;;11.44;76.09;98560.78;4483732;31;20171;-71
2022/05/03 01:17:49;;;;;;;4.12;2.60;;;;;;;11.42;76.29;98561.91;4484062;31;20118;-71
2022/05/03 01:20:38;;;;;;;3.53;2.87;;;;;;;11.39;76.78;98563.03;4484028;31;20155;-71
2022/05/03 01:23:24;;;;;;;5.70;2.95;;;;;;;11.30;77.30;98554.22;4484056;31;20080;-71
2022/05/03 01:26:00;;;;;;;3.87;2.42;;;;;;;11.29;78.90;98567.50;4483857;32;20473;-71
2022/05/03 01:28:31;;;;;;;4.32;2.70;;;;;;;11.09;82.62;98562.34;4484003;31;20087;-71
2022/05/03 01:31:10;;;;;;;4.57;2.83;;;;;;;10.93;83.25;98562.13;4483826;32;20450;-70
2022/05/03 01:33:39;;;;;;;3.95;2.87;;;;;;;10.81;83.54;98567.59;4483703;31;20111;-71
2022/05/03 01:36:08;;;;;;;6.12;2.70;;;;;;;10.80;81.17;98562.47;4484918;31;20143;-71
2022/05/03 01:39:12;;;;;;;4.68;2.47;;;;;;;10.91;79.65;98564.09;4486186;31;20097;-71
2022/05/03 01:41:54;;;;;;;3.80;2.47;;;;;;;10.95;79.37;98565.47;4485819;31;20096;-71
2022/05/03 01:44:38;;;;;;;2.83;2.35;;;;;;;10.92;80.24;98558.72;4484529;32;20100;-71
2022/05/03 01:47:26;;;;;;;4.80;2.53;;;;;;;10.82;81.06;98558.75;4485964;31;20163;-71
2022/05/03 01:50:19;;;;;;;3.45;2.58;;;;;;;10.68;82.30;98561.81;4484766;32;20615;-71
2022/05/03 01:53:10;;;;;;;3.53;2.95;;;;;;;10.54;83.88;98572.78;4485799;31;20144;-71
2022/05/03 01:56:01;;;;;;;4.85;2.75;;;;;;;10.37;87.07;98571.69;4484836;32;20703;-71
2022/05/03 01:58:46;;;;;;;5.53;3.08;;;;;;;10.26;88.60;98567.41;4486026;31;20146;-71
2022/05/03 02:01:22;;;;;;;4.37;2.85;;;;;;;10.10;89.47;98557.53;4485923;31;20107;-71
2022/05/03 02:04:13;;;;;;;3.70;2.60;;;;;;;10.05;89.97;98559.72;4485787;31;20072;-71
2022/05/03 02:07:17;;;;;;;4.20;3.05;;;;;;;10.01;90.34;98560.94;4485376;31;20153;-71
2022/05/03 02:09:45;;;;;;;3.85;2.70;;;;;;;9.97;89.28;98565.63;4485641;31;20171;-70
2022/05/03 02:12:18;;;;;;;4.30;2.87;;;;;;;9.97;87.60;98560.41;4485686;31;20164;-71
2022/05/03 02:14:51;;;;;;;4.78;2.67;;;;;;;9.91;88.33;98555.72;4485693;31;20104;-71
2022/05/03 02:17:37;;;;;;;4.97;2.60;;;;;;;9.89;88.38;98558.47;4485805;31;20100;-70
2022/05/03 02:20:11;;;;;;;5.00;2.87;;;;;;;9.85;88.15;98553.66;4485643;32;20583;-71
2022/05/03 02:23:17;;;;;;;3.55;2.62;;;;;;;9.81;88.54;98554.91;4485785;31;20144;-71
2022/05/03 02:26:05;;;;;;;3.53;2.42;;;;;;;9.79;89.42;98554.22;4485865;32;20093;-71
2022/05/03 02:28:46;;;;;;;4.35;2.75;;;;;;;9.72;89.53;98557.38;4485657;32;20088;-71
2022/05/03 02:31:17;;;;;;;7.75;2.85;;;;;;;9.68;90.15;98563.03;4485740;32;20123;-71
2022/05/03 02:33:49;;;;;;;4.80;2.33;;;;;;;9.67;89.52;98558.75;4485570;31;20585;-71
2022/05/03 02:36:17;;;;;;;5.22;2.25;;;;;;;9.65;88.58;98560.69;4485528;31;20116;-71
2022/05/03 02:39:05;;;;;;;3.97;2.70;;;;;;;9.69;87.62;98564.66;4485637;31;20085;-71
2022/05/03 02:41:40;;;;;;;4.72;2.50;;;;;;;9.76;86.03;98566.63;4485492;31;20134;-71
2022/05/03 02:44:07;;;;;;;4.15;2.85;;;;;;;9.79;86.59;98568.09;4485488;31;20555;-71
2022/05/03 02:46:44;;;;;;;4.32;2.92;;;;;;;9.73;87.10;98564.25;4484975;32;20156;-71
2022/05/03 02:49:20;;;;;;;4.45;2.45;;;;;;;9.71;87.36;98560.13;4485519;31;20114;-71
2022/05/03 02:52:22;;;;;;;4.75;2.80;;;;;;;9.67;88.43;98558.75;4485552;32;20112;-71
2022/05/03 02:55:13;;;;;;;7.25;3.08;;;;;;;9.71;88.76;98560.13;4482184;32;20126;-71
2022/05/03 02:58:29;;;;;;;5.43;3.03;;;;;;;9.66;88.44;98560.53;4485518;31;20143;-71
2022/05/03 03:04:01;;;;;;;3.92;2.85;;;;;;;9.53;89.13;98566.03;4485319;31;20089;-71
2022/05/03 03:06:37;;;;;;;3.87;2.85;;;;;;;9.73;86.19;98564.25;4485406;31;20107;-71
2022/05/03 03:09:06;;;;;;;4.55;2.80;;;;;;;9.67;87.58;98559.56;4485761;31;20119;-71
2022/05/03 03:11:43;;;;;;;3.37;2.72;;;;;;;9.59;87.83;98568.09;4485317;31;20097;-71
2022/05/03 03:14:28;;;;;;;4.78;2.95;;;;;;;9.49;88.41;98566.44;4485188;31;20116;-71
2022/05/03 03:17:03;;;;;;;4.68;2.40;;;;;;;9.36;89.25;98566.69;4485436;31;20096;-71
2022/05/03 03:19:37;;;;;;;4.10;2.80;;;;;;;9.23;90.21;98561.69;4485422;32;20115;-71
2022/05/03 03:22:12;;;;;;;4.40;3.12;;;;;;;9.19;90.67;98563.75;4485194;31;20091;-71
2022/05/03 03:24:40;;;;;;;4.90;2.87;;;;;;;9.16;90.85;98561.41;4485475;31;20096;-71
2022/05/03 03:27:10;;;;;;;4.47;3.10;;;;;;;9.14;91.06;98557.28;4485421;31;20118;-71
2022/05/03 03:29:38;;;;;;;5.78;2.90;;;;;;;9.10;91.02;98566.31;4485327;31;20088;-71
2022/05/03 03:32:07;;;;;;;3.50;2.72;;;;;;;9.04;91.85;98565.91;4469510;32;20499;-71
2022/05/03 03:34:36;;;;;;;3.58;2.80;;;;;;;9.02;91.54;98564.38;4469470;32;20576;-71
2022/05/03 03:37:07;;;;;;;4.62;3.08;;;;;;;9.06;90.61;98560.56;4469485;32;20164;-70
2022/05/03 03:39:38;;;;;;;3.25;2.60;;;;;;;9.11;90.58;98568.00;4469505;32;20166;-70
2022/05/03 03:42:06;;;;;;;4.32;2.95;;;;;;;9.05;90.71;98564.97;4469591;32;20073;-71
2022/05/03 03:44:33;;;;;;;4.50;2.78;;;;;;;9.08;90.87;98568.25;4469391;32;20104;-71
2022/05/03 03:47:03;;;;;;;7.32;2.97;;;;;;;9.10;89.86;98575.00;4469604;32;20093;-70
2022/05/03 03:49:36;;;;;;;3.60;2.62;;;;;;;9.02;90.67;98569.59;4469546;32;20103;-71
2022/05/03 03:52:07;;;;;;;5.32;3.20;;;;;;;8.98;91.41;98570.84;4468168;32;20156;-71
2022/05/03 03:54:35;;;;;;;3.40;2.58;;;;;;;8.95;91.76;98573.69;4469495;32;20124;-72
2022/05/03 03:57:04;;;;;;;4.72;2.90;;;;;;;8.92;92.52;98569.59;4469374;32;20088;-72
2022/05/03 03:59:32;;;;;;;5.50;3.12;;;;;;;8.92;93.33;98574.81;4468223;32;20154;-72
2022/05/03 04:02:00;;;;;;;6.15;2.90;;;;;;;8.94;93.79;98578.09;4469500;32;20145;-72
2022/05/03 04:04:34;;;;;;;7.03;3.00;;;;;;;9.03;93.79;98581.72;4468014;32;20084;-72
2022/05/03 04:07:03;;;;;;;5.68;3.35;;;;;;;8.94;93.02;98582.50;4469363;32;20489;-72
2022/05/03 04:09:30;;;;;;;4.68;2.87;;;;;;;9.11;92.45;98578.44;4469548;32;20561;-72
2022/05/03 04:12:03;;;;;;;3.90;2.78;;;;;;;9.27;92.10;98581.38;4468306;32;20107;-72
2022/05/03 04:14:31;;;;;;;4.37;3.17;;;;;;;9.43;91.44;98572.19;4468747;32;20113;-72
2022/05/03 04:16:59;;;;;;;5.53;2.90;;;;;;;9.55;90.83;98576.34;4468942;32;20084;-72
2022/05/03 04:19:26;;;;;;;5.50;2.97;;;;;;;9.72;90.03;98583.53;4469134;32;20461;-72
2022/05/03 04:21:53;;;;;;;4.70;2.42;;;;;;;9.90;89.13;98580.22;4468538;32;20084;-72
2022/05/03 04:24:21;;;;;;;3.97;2.92;;;;;;;10.08;87.64;98581.22;4469000;32;20088;-72
2022/05/03 04:26:48;;;;;;;5.43;2.80;;;;;;;10.25;88.18;98584.06;4468154;32;20119;-72
2022/05/03 04:29:15;;;;;;;3.70;2.65;;;;;;;10.40;86.30;98581.88;4469013;32;20117;-72
2022/05/03 04:31:42;;;;;;;4.47;2.80;;;;;;;10.47;85.47;98583.78;4482307;32;20126;-72
2022/05/03 04:34:09;;;;;;;8.43;4.22;;;;;;;10.40;85.20;98587.97;4484418;31;20532;-72
2022/05/03 04:36:37;;;;;;;6.93;3.95;;;;;;;10.55;85.00;98580.50;4486104;31;20426;-72
2022/05/03 04:39:04;;;;;;;3.60;2.75;;;;;;;10.76;83.61;98579.44;4500251;31;20088;-72
2022/05/03 04:41:31;;;;;;;6.40;3.00;;;;;;;11.06;80.97;98581.00;4500225;31;20087;-72
2022/05/03 04:43:59;;;;;;;4.32;2.65;;;;;;;11.31;79.80;98582.13;4499874;31;20092;-72
2022/05/03 04:46:26;;;;;;;7.37;3.12;;;;;;;11.34;78.91;98594.12;4500416;31;20115;-72
2022/05/03 04:48:53;;;;;;;5.75;2.92;;;;;;;11.40;78.86;98580.44;4499919;31;20122;-72
2022/05/03 04:51:23;;;;;;;5.53;2.95;;;;;;;11.52;78.38;98594.12;4499223;31;20107;-72
2022/05/03 04:53:51;;;;;;;9.77;2.40;;;;;;;11.71;77.29;98585.31;4498148;31;20101;-72
2022/05/03 04:56:23;;;;;;;4.55;2.53;;;;;;;11.97;76.08;98590.69;4486672;31;20123;-73
2022/05/03 04:58:55;;;;;;;3.35;2.50;;;;;;;12.16;74.58;98592.34;4481709;31;20120;-72
2022/05/03 05:01:23;;;;;;;4.12;2.47;;;;;;;12.43;78.50;98604.53;4482069;31;20112;-74
2022/05/03 05:03:51;;;;;;;3.53;2.40;;;;;;;12.63;78.36;98611.38;4476264;32;20417;-70
2022/05/03 05:06:19;;;;;;;4.90;2.42;;;;;;;12.87;79.64;98611.56;4476556;31;20145;-73
2022/05/03 05:08:46;;;;;;;3.87;2.62;;;;;;;13.12;75.56;98606.41;4481767;31;20104;-72
2022/05/03 05:11:13;;;;;;;7.35;3.30;;;;;;;13.36;77.62;98610.16;4483883;31;20616;-72
2022/05/03 05:13:41;;;;;;;7.85;3.97;;;;;;;13.62;77.11;98610.06;4480840;31;20109;-71
2022/05/03 05:16:08;;;;;;;9.32;4.03;;;;;;;13.78;78.46;98604.03;4479812;32;20088;-72
2022/05/03 05:18:36;;;;;;;11.15;4.95;;;;;;;13.98;78.22;98605.38;4480371;31;20120;-73
2022/05/03 05:21:03;;;;;;;9.52;5.55;;;;;;;14.15;78.58;98606.19;4474738;31;20464;-73
2022/05/03 05:23:30;;;;;;;17.37;5.53;;;;;;;14.26;75.46;98610.34;4475660;31;20138;-72
2022/05/03 05:25:57;;;;;;;11.30;5.72;;;;;;;14.29;74.27;98612.66;4475017;32;20518;-72
2022/05/03 05:28:24;;;;;;;12.80;5.82;;;;;;;14.35;72.61;98598.81;4482972;31;20114;-73
2022/05/03 05:30:52;;;;;;;14.50;6.45;;;;;;;14.54;71.47;98602.91;4482781;31;20096;-72
2022/05/03 05:33:20;;;;;;;16.00;6.70;;;;;;;14.66;70.63;98605.22;4478087;32;20097;-72
2022/05/03 05:35:49;;;;;;;10.65;5.47;;;;;;;14.81;70.27;98615.91;4481016;31;20123;-72
2022/05/03 05:38:17;;;;;;;13.82;6.65;;;;;;;14.98;70.24;98606.16;4482319;31;20541;-72
2022/05/03 05:40:49;;;;;;;10.18;6.25;;;;;;;15.08;70.09;98610.22;4483343;31;20711;-72
2022/05/03 05:43:16;;;;;;;7.97;5.78;;;;;;;15.04;68.36;98611.56;4480866;32;20093;-73
2022/05/03 05:45:44;;;;;;;9.90;6.12;;;;;;;15.08;67.92;98612.88;4482662;31;20104;-72
2022/05/03 05:48:15;;;;;;;20.75;6.93;;;;;;;15.34;65.79;98616.25;4484156;32;20100;-72
2022/05/03 05:50:43;;;;;;;11.38;6.68;;;;;;;15.41;66.52;98615.41;4485455;31;20100;-72
2022/05/03 05:55:56;;;;;;;9.05;7.05;;;;;;;15.85;67.47;98621.13;4486188;31;20107;-73
2022/05/03 05:58:23;;;;;;;20.00;7.95;;;;;;;15.92;66.89;98617.59;4488780;31;20127;-73
2022/05/03 06:00:50;;;;;;;16.50;8.52;;;;;;;15.98;67.42;98617.91;4473747;31;20139;-72
2022/05/03 06:03:20;;;;;;;14.23;8.95;;;;;;;16.02;66.68;98622.69;4477222;32;20174;-73
2022/05/03 06:05:47;;;;;;;17.42;9.07;;;;;;;16.05;69.01;98617.03;4474035;31;20118;-72
2022/05/03 06:08:14;;;;;;;13.60;7.93;;;;;;;16.01;67.67;98613.09;4486292;31;20095;-72
2022/05/03 06:10:41;;;;;;;14.07;8.15;;;;;;;16.12;67.74;98612.69;4472784;32;20119;-72
2022/05/03 06:13:10;;;;;;;14.20;7.75;;;;;;;16.27;67.79;98611.91;4483525;31;20114;-71
2022/05/03 06:15:37;;;;;;;12.77;7.20;;;;;;;16.40;68.03;98612.13;4482022;31;20716;-72
2022/05/03 06:18:06;;;;;;;10.75;6.47;;;;;;;16.46;63.35;98611.41;4483851;31;20105;-73
2022/05/03 06:20:34;;;;;;;9.68;6.22;;;;;;;16.56;63.46;98610.34;4483709;31;20080;-72
2022/05/03 06:23:01;;;;;;;14.80;5.70;;;;;;;16.58;64.01;98617.09;4479115;32;20104;-73
2022/05/03 06:25:28;;;;;;;9.18;6.00;;;;;;;16.62;64.33;98609.62;4484798;31;20123;-73
2022/05/03 06:27:55;;;;;;;14.25;6.87;;;;;;;16.75;64.29;98623.06;4481860;31;20197;-72
2022/05/03 06:30:22;;;;;;;8.80;6.22;;;;;;;16.87;68.00;98618.19;4480771;31;20084;-72
2022/05/03 06:32:50;;;;;;;10.75;7.10;;;;;;;16.85;64.62;98620.97;4481266;32;20100;-73
2022/05/03 06:35:17;;;;;;;11.10;6.10;;;;;;;16.82;63.64;98625.78;4484070;32;20579;-73
2022/05/03 06:37:45;;;;;;;9.77;5.80;;;;;;;16.90;63.92;98628.41;4482547;31;20478;-73
2022/05/03 06:40:12;;;;;;;10.00;6.65;;;;;;;16.97;63.46;98628.47;4479264;32;20134;-74
2022/05/03 06:42:40;;;;;;;11.25;6.62;;;;;;;17.06;61.92;98626.56;4481765;31;20108;-73
2022/05/03 06:45:09;;;;;;;11.55;6.53;;;;;;;17.10;58.49;98626.03;4478516;31;20104;-72
2022/05/03 06:47:44;;;;;;;11.55;6.72;;;;;;;17.09;59.23;98632.31;4470352;32;20612;-73
2022/05/03 06:50:12;;;;;;;11.02;6.05;;;;;;;17.05;58.38;98625.75;4470742;32;20068;-73
2022/05/03 06:52:41;;;;;;;9.52;6.03;;;;;;;17.08;59.25;98629.84;4471649;32;20175;-74
2022/05/03 06:55:21;;;;;;;10.10;5.43;;;;;;;17.26;62.62;98630.31;4475028;31;20088;-72
2022/05/03 06:57:49;;;;;;;10.00;5.47;;;;;;;17.53;61.47;98620.87;4479521;31;20112;-72
2022/05/03 07:00:16;;;;;;;10.07;5.60;;;;;;;17.47;57.47;98629.56;4474725;32;20103;-72
2022/05/03 07:02:44;;;;;;;9.23;5.95;;;;;;;17.56;58.14;98623.16;4478918;32;20112;-69
2022/05/03 07:05:11;;;;;;;14.30;5.35;;;;;;;17.56;58.30;98622.31;4478109;32;20206;-70
2022/05/03 07:07:39;;;;;;;7.65;4.18;;;;;;;17.64;56.79;98624.88;4468963;32;20398;-69
2022/05/03 07:10:07;;;;;;;7.57;3.78;;;;;;;17.72;57.26;98622.09;4478401;32;20122;-71
2022/05/03 07:12:34;;;;;;;6.20;4.22;;;;;;;17.97;54.95;98626.28;4484287;31;20492;-72
2022/05/03 07:15:04;;;;;;;9.43;3.65;;;;;;;18.08;54.69;98631.91;4480386;31;20096;-73
2022/05/03 07:23:03;;;;;;;8.60;4.18;;;;;;;17.89;51.40;98630.66;4480279;32;20154;-73
2022/05/03 07:25:31;;;;;;;8.35;3.72;;;;;;;18.17;53.46;98634.41;4480339;32;20096;-73
2022/05/03 07:27:58;;;;;;;6.28;3.70;;;;;;;18.42;53.07;98627.69;4477162;32;20100;-74
2022/05/03 07:30:26;;;;;;;6.53;3.75;;;;;;;18.54;54.01;98630.66;4482191;32;20095;-73
2022/05/03 07:32:54;;;;;;;6.87;3.78;;;;;;;18.72;56.31;98629.37;4474683;31;20119;-72
2022/05/03 07:35:21;;;;;;;3.95;2.97;;;;;;;18.78;55.16;98625.94;4484402;31;20173;-72
2022/05/03 07:37:50;;;;;;;4.12;2.70;;;;;;;18.61;51.46;98626.22;4484302;31;20143;-72
2022/05/03 07:40:17;;;;;;;3.78;2.67;;;;;;;18.57;48.41;98627.63;4480554;32;20377;-72
2022/05/03 07:42:45;;;;;;;5.75;2.80;;;;;;;18.43;50.75;98636.50;4476159;32;20104;-74
2022/05/03 07:45:13;;;;;;;4.47;2.10;;;;;;;18.69;48.44;98635.06;4471981;31;20108;-73
2022/05/03 07:47:40;;;;;;;4.22;2.22;;;;;;;18.56;46.79;98628.66;4472971;32;20123;-73
2022/05/03 07:50:07;;;;;;;4.87;2.20;;;;;;;18.48;47.13;98628.78;4483322;31;20130;-72
2022/05/03 07:52:35;;;;;;;6.72;2.42;;;;;;;18.38;46.90;98630.94;4482473;31;20184;-73
2022/05/03 07:55:05;;;;;;;4.60;2.42;;;;;;;18.65;48.60;98629.31;4480092;31;20518;-72
2022/05/03 07:57:33;;;;;;;5.32;2.53;;;;;;;18.68;47.53;98628.94;4480231;32;20189;-72
2022/05/03 08:00:01;;;;;;;3.92;2.62;;;;;;;18.56;48.11;98636.63;4476775;31;20478;-72
2022/05/03 08:02:30;;;;;;;4.65;2.45;;;;;;;18.65;49.92;98636.47;4479105;32;20581;-72
2022/05/03 08:04:58;;;;;;;3.87;2.53;;;;;;;18.74;49.89;98636.16;4477399;32;20119;-73
2022/05/03 08:07:25;;;;;;;5.28;2.80;;;;;;;18.91;49.06;98636.69;4483150;31;20583;-73
2022/05/03 08:09:53;;;;;;;5.60;2.83;;;;;;;19.07;48.79;98640.06;4479034;31;20599;-72
2022/05/03 08:12:24;;;;;;;8.55;2.62;;;;;;;19.02;46.92;98632.66;4478912;32;20115;-73
2022/05/03 08:14:52;;;;;;;4.30;2.90;;;;;;;19.20;47.21;98637.47;4476016;31;20089;-72
2022/05/03 08:17:19;;;;;;;8.73;3.40;;;;;;;19.48;50.99;98636.56;4478286;31;20096;-72
2022/05/03 08:19:47;;;;;;;5.05;2.60;;;;;;;19.63;50.69;98637.25;4474876;31;20099;-72
2022/05/03 08:22:14;;;;;;;5.10;2.87;;;;;;;19.78;49.36;98637.13;4479187;31;20139;-71
2022/05/03 08:24:42;;;;;;;4.28;2.75;;;;;;;19.83;46.88;98647.16;4475462;32;20226;-72
2022/05/03 08:27:09;;;;;;;5.97;2.35;;;;;;;19.70;46.60;98639.94;4481380;31;20112;-72
2022/05/03 08:29:36;;;;;;;2.78;2.20;;;;;;;19.90;47.80;98639.22;4481265;31;20770;-72
2022/05/03 08:32:05;;;;;;;7.65;2.47;;;;;;;19.64;47.10;98643.41;4474134;32;20097;-73
2022/05/03 08:34:32;;;;;;;4.20;2.90;;;;;;;19.88;46.54;98638.59;4472215;32;20163;-71
2022/05/03 08:42:31;;;;;;;2.80;2.17;;;;;;;20.21;45.17;98635.97;4483609;31;20089;-73
2022/05/03 08:45:00;;;;;;;3.33;2.65;;;;;;;20.33;46.80;98638.88;4481035;31;20552;-72
2022/05/03 08:47:28;;;;;;;3.80;2.60;;;;;;;20.13;46.81;98634.34;4474900;31;20977;-73
2022/05/03 08:50:07;;;;;;;3.37;2.35;;;;;;;20.24;47.64;98630.25;4482255;31;20170;-71
2022/05/03 08:52:41;;;;;;;7.68;3.15;;;;;;;20.32;45.62;98632.75;4482716;32;20423;-72
2022/05/03 08:55:08;;;;;;;;;;;;;;;19.94;44.92;98637.78;4484498;32;20073;-73
2022/05/03 08:57:36;;;;;;;3.30;2.65;;;;;;;20.01;45.53;98633.31;4482339;32;20333;-73
2022/05/03 09:00:06;;;;;;;8.02;2.42;;;;;;;19.91;45.29;98638.19;4478304;32;20700;-73
2022/05/03 09:02:34;;;;;;;4.85;2.70;;;;;;;20.29;50.34;98635.81;4482381;31;20088;-73
2022/05/03 09:05:02;;;;;;;5.95;2.87;;;;;;;20.55;45.62;98634.19;4475461;31;20696;-73
2022/05/03 09:07:31;;;;;;;5.25;2.37;;;;;;;20.72;46.04;98632.75;4475405;32;20100;-73
2022/05/03 09:10:14;;;;;;;3.15;2.40;;;;;;;20.64;45.25;98637.47;4472381;32;20080;-72
2022/05/03 09:12:44;;;;;;;7.07;2.33;;;;;;;20.74;43.46;98636.03;4467798;32;20108;-74
2022/05/03 09:15:11;;;;;;;4.28;2.70;;;;;;;20.91;48.02;98625.78;4467125;32;20481;-74
2022/05/03 09:17:44;;;;;;;6.50;2.55;;;;;;;21.06;45.42;98636.19;4477314;32;20541;-74
2022/05/03 09:26:18;;;;;;;3.22;2.75;;;;;;;21.57;49.37;98628.47;4430232;32;20108;-74
2022/05/03 09:29:00;;;;;;;5.55;2.60;;;;;;;22.00;46.84;98627.00;4431337;32;20194;-74
2022/05/03 09:31:42;;;;;;;3.22;2.20;;;;;;;22.26;43.75;98626.03;4430072;32;20101;-74
2022/05/03 09:34:26;;;;;;;6.20;2.50;;;;;;;22.02;37.41;98619.63;4431827;32;20105;-74
2022/05/03 09:37:02;;;;;;;;;;;;;;;21.41;37.51;98617.22;4429890;32;20264;-75
2022/05/03 09:39:42;;;;;;;2.55;2.10;;;;;;;21.56;41.43;98614.34;4431406;32;20015;-74
2022/05/03 09:42:12;;;;;;;5.78;2.95;;;;;;;22.05;43.02;98619.19;4430864;32;20179;-74
2022/05/03 09:45:02;;;;;;;4.05;2.50;;;;;;;22.11;45.45;98619.16;4433357;32;20102;-75
2022/05/03 09:47:32;;;;;;;6.18;2.87;;;;;;;22.56;38.47;98618.22;4433464;32;20093;-75
2022/05/03 09:50:00;;;;;;;3.55;2.72;;;;;;;22.21;36.19;98617.84;4433259;32;20101;-75
2022/05/03 09:52:37;;;;;;;4.65;2.62;;;;;;;22.12;36.33;98612.78;4432048;32;20113;-76
2022/05/03 09:55:09;;;;;;;3.50;2.80;;;;;;;22.56;37.27;98617.38;4427234;32;20105;-76
2022/05/03 09:57:40;;;;;;;5.30;2.90;;;;;;;22.68;42.41;98615.66;4460401;32;20130;-76
2022/05/03 10:00:10;;;;;;;6.37;2.67;;;;;;;22.78;38.13;98613.28;4471060;32;20422;-75
2022/05/03 10:02:42;;;;;;;5.07;2.35;;;;;;;23.09;40.31;98608.91;4481323;32;20092;-76
2022/05/03 10:05:16;;;;;;;4.97;3.10;;;;;;;23.30;37.74;98604.13;4473710;32;20152;-75
2022/05/03 10:07:44;;;;;;;4.68;2.90;;;;;;;23.52;37.25;98596.47;4468558;32;20092;-77
2022/05/03 10:10:14;;;;;;;4.25;2.62;;;;;;;23.95;37.41;98595.47;4480344;32;20153;-77
2022/05/03 10:12:43;;;;;;;12.15;2.87;;;;;;;24.17;35.94;98601.13;4470170;31;20113;-76
2022/05/03 10:15:12;;;;;;;3.62;2.35;;;;;;;24.68;38.81;98593.53;4478937;32;20122;-76
2022/05/03 10:20:39;;;;;;;3.45;2.60;;;;;;;25.09;35.87;98589.06;4472746;32;20119;-75
2022/05/03 10:23:23;;;;;;;7.50;3.03;;;;;;;25.05;31.91;98587.09;4479708;32;20099;-75
2022/05/03 10:25:53;;;;;;;8.20;2.30;;;;;;;25.02;34.10;98584.88;4475402;31;20466;-75
2022/05/03 10:28:20;;;;;;;3.70;2.30;;;;;;;25.18;34.27;98577.97;4485374;31;20096;-74
2022/05/03 10:31:05;;;;;;;3.70;2.72;;;;;;;25.03;33.83;98570.44;4484533;31;20115;-74
2022/05/03 10:33:35;;;;;;;4.78;2.90;;;;;;;24.91;35.72;98579.31;4482744;32;20526;-73
2022/05/03 10:36:04;;;;;;;15.13;3.03;;;;;;;24.97;35.36;98574.88;4480789;31;20149;-74
2022/05/03 10:38:40;;;;;;;4.72;2.58;;;;;;;25.11;35.32;98576.22;4478401;32;20109;-75
2022/05/03 10:41:09;;;;;;;4.70;2.90;;;;;;;24.61;31.97;98571.41;4472846;32;20097;-73
2022/05/03 10:43:37;;;;;;;4.60;2.67;;;;;;;24.07;34.18;98582.13;4480487;31;20104;-73
2022/05/03 10:46:12;;;;;;;3.75;2.80;;;;;;;23.56;32.58;98582.44;4485255;31;20442;-73
2022/05/03 10:48:43;;;;;;;5.65;2.58;;;;;;;23.41;36.24;98579.34;4485305;31;20532;-73
2022/05/03 10:51:12;;;;;;;7.53;2.87;;;;;;;23.28;33.62;98574.16;4480388;31;20205;-74
2022/05/03 10:53:41;;;;;;;12.05;2.90;;;;;;;22.85;32.27;98573.19;4471755;32;20127;-72
2022/05/03 10:56:13;;;;;;;3.65;2.87;;;;;;;22.85;34.86;98567.84;4476090;32;20116;-72
2022/05/03 10:58:41;;;;;;;7.93;2.83;;;;;;;22.78;36.44;98567.87;4467875;32;20125;-73
2022/05/03 11:01:20;;;;;;;3.12;2.60;;;;;;;22.70;35.51;98557.50;4466839;32;20111;-73
2022/05/03 11:03:48;;;;;;;5.82;2.42;;;;;;;21.48;39.41;98582.53;4467114;32;20100;-72
2022/05/03 11:06:18;;;;;;;5.75;2.78;;;;;;;20.58;41.05;98571.75;4467672;32;20135;-73
2022/05/03 11:09:04;;;;;;;4.25;2.90;;;;;;;20.60;42.31;98565.16;4475243;32;20120;-73
2022/05/03 11:14:24;;;;;;;3.03;2.50;;;;;;;19.85;44.73;98568.03;4466183;32;20107;-73
2022/05/03 11:17:09;;;;;;;3.75;2.35;;;;;;;19.46;44.63;98570.34;4467916;32;20153;-72
2022/05/03 11:19:47;;;;;;;5.10;2.30;;;;;;;19.60;44.48;98581.84;4467613;32;20167;-73
2022/05/03 11:22:17;;;;;;;3.70;2.10;;;;;;;19.18;45.20;98578.41;4481875;31;20624;-73
2022/05/03 11:24:46;;;;;;;4.20;2.17;;;;;;;18.73;46.08;98570.81;4477853;32;20631;-73
2022/05/03 11:27:14;;;;;;;2.92;1.98;;;;;;;18.46;49.04;98567.16;4479016;31;20101;-72
2022/05/03 11:30:04;;;;;;;2.95;1.90;;;;;;;18.35;49.78;98571.16;4477288;31;20149;-73
2022/05/03 11:32:32;;;;;;;4.37;2.00;;;;;;;18.41;49.27;98562.44;4476615;31;20096;-73
2022/05/03 11:35:04;;;;;;;3.55;2.47;;;;;;;18.61;44.17;98551.94;4487984;31;20206;-72
2022/05/03 11:37:32;;;;;;;3.55;2.80;;;;;;;18.76;41.57;98561.63;4469877;32;20104;-73
2022/05/03 11:40:04;;;;;;;3.08;2.40;;;;;;;18.79;39.39;98558.59;4481197;32;20108;-73
2022/05/03 11:42:40;;;;;;;3.40;2.60;;;;;;;19.12;38.89;98553.47;4483374;31;20108;-74
2022/05/03 11:45:08;;;;;;;7.57;2.55;;;;;;;19.31;39.41;98549.25;4482974;32;20109;-74
2022/05/03 11:47:44;;;;;;;3.42;2.05;;;;;;;19.46;37.55;98548.28;4482812;31;20096;-73
2022/05/03 11:50:13;;;;;;;5.03;2.05;;;;;;;19.37;36.05;98545.00;4481423;32;20504;-73
2022/05/03 11:58:15;;;;;;;3.08;1.52;;;;;;;19.24;37.21;98540.47;4483607;32;20134;-72
2022/05/03 12:00:47;;;;;;;1.42;1.30;;;;;;;19.44;37.99;98553.81;4468893;32;20131;-73
2022/05/03 12:03:15;;;;;;;1.60;1.50;;;;;;;19.59;35.13;98551.00;4468905;32;20093;-73
2022/05/03 12:06:00;;;;;;;3.17;1.85;;;;;;;19.68;39.21;98557.75;4481035;32;20084;-74
2022/05/03 12:08:29;;;;;;;3.67;1.48;;;;;;;19.54;39.43;98549.94;4480654;32;20153;-74
2022/05/03 12:10:56;;;;;;;3.12;1.70;;;;;;;19.31;39.40;98551.09;4483507;31;20092;-73
2022/05/03 12:13:24;;;;;;;3.08;2.10;;;;;;;19.52;38.44;98541.38;4483873;31;20092;-74
2022/05/03 12:15:57;;;;;;;3.42;1.77;;;;;;;19.79;37.91;98535.09;4472718;32;20113;-73
2022/05/03 12:18:31;;;;;;;4.45;1.85;;;;;;;19.83;38.58;98540.81;4467890;32;20107;-72
2022/05/03 12:21:21;;;;;;;2.78;1.75;;;;;;;19.94;37.02;98537.59;4467867;32;20092;-73
2022/05/03 12:23:57;;;;;;;2.40;2.00;;;;;;;20.15;36.97;98536.56;4466907;32;20158;-73
2022/05/03 12:26:45;;;;;;;2.60;1.70;;;;;;;20.14;36.18;98534.12;4466616;32;20104;-74
2022/05/03 12:29:12;;;;;;;2.62;1.80;;;;;;;20.23;36.68;98538.19;4465372;32;20124;-73
2022/05/03 12:31:43;;;;;;;4.32;1.90;;;;;;;20.49;39.22;98541.88;4479959;32;20116;-72
2022/05/03 12:34:20;;;;;;;3.33;2.10;;;;;;;20.59;39.86;98534.28;4482178;32;20103;-73